createdAt,value
2018-03-20T00:00:32.642Z,0
2018-03-20T00:01:33.442Z,0
2018-03-20T00:02:34.172Z,0
2018-03-20T00:03:34.898Z,0
2018-03-20T00:04:35.651Z,0
2018-03-20T00:05:36.400Z,0
2018-03-20T00:06:37.125Z,0
2018-03-20T00:07:37.896Z,0
2018-03-20T00:08:38.636Z,0
2018-03-20T00:09:39.977Z,0
2018-03-20T00:10:40.952Z,0
2018-03-20T00:11:41.679Z,0
2018-03-20T00:12:42.410Z,0
2018-03-20T00:13:43.126Z,0
2018-03-20T00:14:43.853Z,0
2018-03-20T00:15:44.571Z,0
2018-03-20T00:16:45.280Z,0
2018-03-20T00:17:45.999Z,0
2018-03-20T00:18:46.732Z,0
2018-03-20T00:19:47.446Z,0
2018-03-20T00:20:48.242Z,0
2018-03-20T00:21:48.995Z,0
2018-03-20T00:22:49.716Z,0
2018-03-20T00:23:50.514Z,0
2018-03-20T00:24:51.234Z,0
2018-03-20T00:25:51.942Z,0
2018-03-20T00:26:52.661Z,0
2018-03-20T00:27:53.384Z,0
2018-03-20T00:28:54.097Z,0
2018-03-20T00:29:54.807Z,0
2018-03-20T00:30:55.564Z,0
2018-03-20T00:31:56.363Z,0
2018-03-20T00:32:57.154Z,0
2018-03-20T00:33:57.872Z,0
2018-03-20T00:34:58.580Z,0
2018-03-20T00:35:59.343Z,0
2018-03-20T00:37:00.067Z,0
2018-03-20T00:38:00.836Z,0
2018-03-20T00:39:01.619Z,0
2018-03-20T00:40:02.331Z,0
2018-03-20T00:41:03.080Z,0
2018-03-20T00:42:03.862Z,0
2018-03-20T00:43:04.584Z,0
2018-03-20T00:44:05.361Z,0
2018-03-20T00:45:06.154Z,0
2018-03-20T00:46:06.928Z,0
2018-03-20T00:47:07.635Z,0
2018-03-20T00:48:08.349Z,0
2018-03-20T00:49:09.124Z,0
2018-03-20T00:50:09.913Z,0
2018-03-20T00:51:10.665Z,0
2018-03-20T00:52:11.391Z,0
2018-03-20T00:53:12.152Z,0
2018-03-20T00:54:12.865Z,0
2018-03-20T00:55:13.633Z,0
2018-03-20T00:56:14.343Z,0
2018-03-20T00:57:15.064Z,0
2018-03-20T00:58:15.901Z,0
2018-03-20T00:59:16.714Z,0
2018-03-20T01:00:17.497Z,0
2018-03-20T01:01:18.209Z,0
2018-03-20T01:02:18.942Z,0
2018-03-20T01:03:19.674Z,0
2018-03-20T01:04:20.464Z,0
2018-03-20T01:05:21.176Z,0
2018-03-20T01:06:21.954Z,0
2018-03-20T01:07:22.683Z,0
2018-03-20T01:08:23.451Z,0
2018-03-20T01:09:24.224Z,0
2018-03-20T01:10:25.013Z,0
2018-03-20T01:11:25.743Z,0
2018-03-20T01:12:26.512Z,0
2018-03-20T01:13:27.293Z,0
2018-03-20T01:14:28.003Z,0
2018-03-20T01:15:28.715Z,0
2018-03-20T01:16:29.431Z,0
2018-03-20T01:17:30.161Z,0
2018-03-20T01:18:30.863Z,0
2018-03-20T01:19:31.562Z,0
2018-03-20T01:20:32.274Z,0
2018-03-20T01:21:32.980Z,0
2018-03-20T01:22:33.712Z,0
2018-03-20T01:23:34.460Z,0
2018-03-20T01:24:35.176Z,0
2018-03-20T01:25:35.929Z,0
2018-03-20T01:26:36.641Z,0
2018-03-20T01:27:37.357Z,0
2018-03-20T01:28:38.082Z,0
2018-03-20T01:29:38.857Z,0
2018-03-20T01:30:39.570Z,0
2018-03-20T01:31:40.286Z,0
2018-03-20T01:32:41.056Z,0
2018-03-20T01:33:41.773Z,0
2018-03-20T01:34:42.487Z,0
2018-03-20T01:35:43.200Z,0
2018-03-20T01:36:43.944Z,0
2018-03-20T01:37:44.729Z,0
2018-03-20T01:38:45.446Z,0
2018-03-20T01:39:46.175Z,0
2018-03-20T01:40:46.977Z,0
2018-03-20T01:41:47.773Z,0
2018-03-20T01:42:48.480Z,0
2018-03-20T01:43:49.206Z,0
2018-03-20T01:44:50.014Z,0
2018-03-20T01:45:50.726Z,0
2018-03-20T01:46:51.450Z,0
2018-03-20T01:47:52.210Z,0
2018-03-20T01:48:52.934Z,0
2018-03-20T01:49:53.709Z,0
2018-03-20T01:50:54.420Z,0
2018-03-20T01:51:55.147Z,0
2018-03-20T01:52:55.952Z,0
2018-03-20T01:53:56.673Z,0
2018-03-20T01:54:57.492Z,0
2018-03-20T01:55:58.205Z,0
2018-03-20T01:56:58.986Z,0
2018-03-20T01:57:59.692Z,0
2018-03-20T01:59:00.407Z,0
2018-03-20T02:00:01.137Z,0
2018-03-20T02:01:01.856Z,0
2018-03-20T02:02:02.539Z,0
2018-03-20T02:03:03.251Z,0
2018-03-20T02:04:03.974Z,0
2018-03-20T02:05:04.689Z,0
2018-03-20T02:06:05.462Z,0
2018-03-20T02:07:06.200Z,0
2018-03-20T02:08:06.925Z,0
2018-03-20T02:09:07.710Z,0
2018-03-20T02:10:08.431Z,0
2018-03-20T02:11:09.150Z,0
2018-03-20T02:12:09.856Z,0
2018-03-20T02:13:10.663Z,0
2018-03-20T02:14:11.422Z,0
2018-03-20T02:15:12.138Z,0
2018-03-20T02:16:12.865Z,0
2018-03-20T02:17:13.623Z,0
2018-03-20T02:18:14.399Z,0
2018-03-20T02:19:15.100Z,0
2018-03-20T02:20:15.812Z,0
2018-03-20T02:21:16.582Z,0
2018-03-20T02:22:17.361Z,0
2018-03-20T02:23:18.076Z,0
2018-03-20T02:24:18.852Z,0
2018-03-20T02:25:19.611Z,0
2018-03-20T02:26:20.403Z,0
2018-03-20T02:27:21.130Z,0
2018-03-20T02:28:21.843Z,0
2018-03-20T02:29:22.623Z,0
2018-03-20T02:30:23.343Z,0
2018-03-20T02:31:24.131Z,0
2018-03-20T02:32:24.842Z,0
2018-03-20T02:33:25.566Z,0
2018-03-20T02:34:26.324Z,0
2018-03-20T02:35:27.033Z,0
2018-03-20T02:36:27.738Z,0
2018-03-20T02:37:28.530Z,0
2018-03-20T02:38:29.325Z,0
2018-03-20T02:39:30.146Z,0
2018-03-20T02:40:30.889Z,0
2018-03-20T02:41:31.653Z,0
2018-03-20T02:42:32.424Z,0
2018-03-20T02:43:33.175Z,0
2018-03-20T02:44:33.888Z,0
2018-03-20T02:45:34.591Z,0
2018-03-20T02:46:35.324Z,0
2018-03-20T02:47:36.061Z,0
2018-03-20T02:48:36.770Z,0
2018-03-20T02:49:37.482Z,0
2018-03-20T02:50:38.206Z,0
2018-03-20T02:51:38.994Z,0
2018-03-20T02:52:39.772Z,0
2018-03-20T02:53:40.473Z,0
2018-03-20T02:54:41.187Z,0
2018-03-20T02:55:41.903Z,0
2018-03-20T02:56:42.625Z,0
2018-03-20T02:57:43.406Z,0
2018-03-20T02:58:44.152Z,0
2018-03-20T02:59:44.884Z,0
2018-03-20T03:00:45.597Z,0
2018-03-20T03:01:46.304Z,0
2018-03-20T03:02:47.066Z,0
2018-03-20T03:03:47.785Z,0
2018-03-20T03:04:48.594Z,0
2018-03-20T03:05:49.316Z,0
2018-03-20T03:06:50.083Z,0
2018-03-20T03:07:50.792Z,0
2018-03-20T03:08:51.515Z,0
2018-03-20T03:09:52.243Z,0
2018-03-20T03:10:52.985Z,0
2018-03-20T03:11:53.769Z,0
2018-03-20T03:12:54.492Z,0
2018-03-20T03:13:55.193Z,0
2018-03-20T03:14:55.934Z,0
2018-03-20T03:15:56.763Z,0
2018-03-20T03:16:57.551Z,0
2018-03-20T03:17:58.274Z,0
2018-03-20T03:18:58.979Z,0
2018-03-20T03:19:59.691Z,0
2018-03-20T03:21:00.425Z,0
2018-03-20T03:22:01.124Z,0
2018-03-20T03:23:01.840Z,0
2018-03-20T03:24:02.555Z,0
2018-03-20T03:25:03.283Z,0
2018-03-20T03:26:04.057Z,0
2018-03-20T03:27:04.780Z,0
2018-03-20T03:28:05.500Z,0
2018-03-20T03:29:06.226Z,0
2018-03-20T03:30:06.932Z,0
2018-03-20T03:31:07.643Z,0
2018-03-20T03:32:08.364Z,0
2018-03-20T03:33:09.078Z,0
2018-03-20T03:34:09.813Z,0
2018-03-20T03:35:10.641Z,0
2018-03-20T03:36:11.301Z,0
2018-03-20T03:37:12.005Z,0
2018-03-20T03:38:12.789Z,0
2018-03-20T03:39:13.512Z,0
2018-03-20T03:40:14.270Z,0
2018-03-20T03:41:15.042Z,0
2018-03-20T03:42:15.772Z,0
2018-03-20T03:43:16.515Z,0
2018-03-20T03:44:17.221Z,0
2018-03-20T03:45:17.940Z,0
2018-03-20T03:46:18.727Z,0
2018-03-20T03:47:19.481Z,0
2018-03-20T03:48:20.209Z,0
2018-03-20T03:49:20.918Z,0
2018-03-20T03:50:21.641Z,0
2018-03-20T03:51:22.364Z,0
2018-03-20T03:52:23.074Z,0
2018-03-20T03:53:23.795Z,0
2018-03-20T03:54:24.596Z,0
2018-03-20T03:55:25.316Z,0
2018-03-20T03:56:26.113Z,0
2018-03-20T03:57:26.833Z,0
2018-03-20T03:58:27.620Z,0
2018-03-20T03:59:28.363Z,0
2018-03-20T04:00:29.110Z,0
2018-03-20T04:01:29.831Z,0
2018-03-20T04:02:30.552Z,0
2018-03-20T04:03:31.333Z,0
2018-03-20T04:04:32.057Z,0
2018-03-20T04:05:32.773Z,0
2018-03-20T04:06:33.506Z,0
2018-03-20T04:07:34.237Z,0
2018-03-20T04:08:35.037Z,0
2018-03-20T04:09:35.862Z,0
2018-03-20T04:10:36.631Z,0
2018-03-20T04:11:37.369Z,0
2018-03-20T04:12:38.105Z,0
2018-03-20T04:13:38.828Z,0
2018-03-20T04:14:39.592Z,0
2018-03-20T04:15:40.322Z,0
2018-03-20T04:16:41.061Z,0
2018-03-20T04:17:41.772Z,0
2018-03-20T04:18:42.583Z,0
2018-03-20T04:19:43.302Z,0
2018-03-20T04:20:44.030Z,0
2018-03-20T04:21:44.756Z,0
2018-03-20T04:22:45.485Z,0
2018-03-20T04:23:46.293Z,0
2018-03-20T04:24:47.004Z,0
2018-03-20T04:25:47.805Z,0
2018-03-20T04:26:48.521Z,0
2018-03-20T04:27:49.211Z,0
2018-03-20T04:28:49.947Z,0
2018-03-20T04:29:50.691Z,0
2018-03-20T04:30:51.414Z,0
2018-03-20T04:31:52.134Z,0
2018-03-20T04:32:52.844Z,0
2018-03-20T04:33:53.571Z,0
2018-03-20T04:34:54.290Z,0
2018-03-20T04:35:55.011Z,0
2018-03-20T04:36:55.731Z,0
2018-03-20T04:37:56.464Z,0
2018-03-20T04:38:57.190Z,0
2018-03-20T04:39:57.969Z,0
2018-03-20T04:40:58.724Z,0
2018-03-20T04:41:59.482Z,0
2018-03-20T04:43:00.197Z,0
2018-03-20T04:44:00.925Z,0
2018-03-20T04:45:01.631Z,0
2018-03-20T04:46:02.334Z,0
2018-03-20T04:47:03.113Z,0
2018-03-20T04:48:03.902Z,0
2018-03-20T04:49:04.631Z,0
2018-03-20T04:50:05.346Z,0
2018-03-20T04:51:06.080Z,0
2018-03-20T04:52:06.903Z,0
2018-03-20T04:53:07.634Z,0
2018-03-20T04:54:08.342Z,0
2018-03-20T04:55:09.060Z,0
2018-03-20T04:56:09.781Z,0
2018-03-20T04:57:10.491Z,0
2018-03-20T04:58:11.289Z,0
2018-03-20T04:59:12.109Z,0
2018-03-20T05:00:12.808Z,0
2018-03-20T05:01:13.551Z,0
2018-03-20T05:02:14.320Z,0
2018-03-20T05:03:15.056Z,0
2018-03-20T05:04:15.783Z,0
2018-03-20T05:05:16.550Z,0
2018-03-20T05:06:17.280Z,0
2018-03-20T05:07:18.040Z,0
2018-03-20T05:08:18.772Z,0
2018-03-20T05:09:19.491Z,0
2018-03-20T05:10:20.208Z,0
2018-03-20T05:11:20.921Z,0
2018-03-20T05:12:21.624Z,0
2018-03-20T05:13:22.361Z,0
2018-03-20T05:14:23.152Z,0
2018-03-20T05:15:23.928Z,0
2018-03-20T05:16:24.662Z,0
2018-03-20T05:17:25.380Z,0
2018-03-20T05:18:26.204Z,0
2018-03-20T05:19:26.995Z,0
2018-03-20T05:20:27.762Z,0
2018-03-20T05:21:28.491Z,0
2018-03-20T05:22:29.210Z,0
2018-03-20T05:23:29.936Z,0
2018-03-20T05:24:30.711Z,0
2018-03-20T05:25:31.426Z,0
2018-03-20T05:26:32.220Z,0
2018-03-20T05:27:32.942Z,0
2018-03-20T05:28:33.671Z,0
2018-03-20T05:29:34.390Z,0
2018-03-20T05:30:35.116Z,0
2018-03-20T05:31:35.898Z,0
2018-03-20T05:32:36.624Z,0
2018-03-20T05:33:37.414Z,0
2018-03-20T05:34:38.136Z,0
2018-03-20T05:35:38.893Z,0
2018-03-20T05:36:39.603Z,0
2018-03-20T05:37:40.324Z,0
2018-03-20T05:38:41.048Z,0
2018-03-20T05:39:41.884Z,0
2018-03-20T05:40:42.683Z,0
2018-03-20T05:41:43.403Z,0
2018-03-20T05:42:44.129Z,0
2018-03-20T05:43:44.874Z,0
2018-03-20T05:44:45.707Z,0
2018-03-20T05:45:46.426Z,0
2018-03-20T05:46:47.152Z,0
2018-03-20T05:47:47.944Z,0
2018-03-20T05:48:48.684Z,5
2018-03-20T05:49:49.463Z,5
2018-03-20T05:50:50.239Z,5
2018-03-20T05:51:50.962Z,5
2018-03-20T05:52:51.673Z,5
2018-03-20T05:53:52.430Z,0
2018-03-20T05:54:53.149Z,0
2018-03-20T05:55:53.978Z,5
2018-03-20T05:56:54.651Z,5
2018-03-20T05:57:55.377Z,5
2018-03-20T05:58:56.127Z,5
2018-03-20T05:59:56.854Z,5
2018-03-20T06:00:57.622Z,5
2018-03-20T06:01:58.361Z,5
2018-03-20T06:02:59.095Z,5
2018-03-20T06:03:59.901Z,5
2018-03-20T06:05:00.628Z,5
2018-03-20T06:06:01.346Z,5
2018-03-20T06:07:02.159Z,5
2018-03-20T06:08:02.929Z,5
2018-03-20T06:09:03.656Z,5
2018-03-20T06:10:04.473Z,5
2018-03-20T06:11:05.231Z,5
2018-03-20T06:12:05.968Z,5
2018-03-20T06:13:06.735Z,5
2018-03-20T06:14:07.535Z,5
2018-03-20T06:15:08.254Z,5
2018-03-20T06:16:08.970Z,5
2018-03-20T06:17:09.695Z,5
2018-03-20T06:18:10.498Z,5
2018-03-20T06:19:11.286Z,5
2018-03-20T06:20:12.077Z,5
2018-03-20T06:21:12.813Z,5
2018-03-20T06:22:13.634Z,5
2018-03-20T06:23:14.345Z,5
2018-03-20T06:24:15.061Z,5
2018-03-20T06:25:15.792Z,5
2018-03-20T06:26:16.586Z,11
2018-03-20T06:27:17.428Z,11
2018-03-20T06:28:18.127Z,11
2018-03-20T06:29:18.843Z,11
2018-03-20T06:30:19.612Z,11
2018-03-20T06:31:20.333Z,11
2018-03-20T06:32:21.050Z,11
2018-03-20T06:33:21.872Z,11
2018-03-20T06:34:22.571Z,11
2018-03-20T06:35:23.299Z,11
2018-03-20T06:36:23.979Z,11
2018-03-20T06:37:24.700Z,11
2018-03-20T06:38:25.431Z,16
2018-03-20T06:39:26.197Z,16
2018-03-20T06:40:26.899Z,22
2018-03-20T06:41:27.621Z,22
2018-03-20T06:42:28.460Z,22
2018-03-20T06:43:29.137Z,22
2018-03-20T06:44:29.923Z,22
2018-03-20T06:45:30.686Z,16
2018-03-20T06:46:31.409Z,22
2018-03-20T06:47:32.121Z,22
2018-03-20T06:48:32.831Z,22
2018-03-20T06:49:33.592Z,22
2018-03-20T06:50:34.347Z,22
2018-03-20T06:51:35.105Z,22
2018-03-20T06:52:35.889Z,22
2018-03-20T06:53:36.632Z,22
2018-03-20T06:54:37.364Z,22
2018-03-20T06:55:38.142Z,22
2018-03-20T06:56:38.922Z,22
2018-03-20T06:57:39.644Z,28
2018-03-20T06:58:40.439Z,28
2018-03-20T06:59:41.209Z,28
2018-03-20T07:00:41.939Z,28
2018-03-20T07:01:42.671Z,22
2018-03-20T07:02:43.451Z,22
2018-03-20T07:03:44.216Z,28
2018-03-20T07:04:44.937Z,22
2018-03-20T07:05:45.662Z,22
2018-03-20T07:06:46.382Z,22
2018-03-20T07:07:47.161Z,22
2018-03-20T07:08:47.902Z,28
2018-03-20T07:09:48.642Z,22
2018-03-20T07:10:49.363Z,33
2018-03-20T07:11:50.120Z,39
2018-03-20T07:12:50.841Z,45
2018-03-20T07:13:51.559Z,50
2018-03-20T07:14:52.251Z,50
2018-03-20T07:15:53.020Z,45
2018-03-20T07:16:53.731Z,50
2018-03-20T07:17:54.452Z,50
2018-03-20T07:18:55.172Z,56
2018-03-20T07:19:55.920Z,61
2018-03-20T07:20:56.623Z,67
2018-03-20T07:21:57.358Z,61
2018-03-20T07:22:58.139Z,45
2018-03-20T07:23:58.873Z,56
2018-03-20T07:24:59.664Z,61
2018-03-20T07:26:00.442Z,61
2018-03-20T07:27:01.140Z,61
2018-03-20T07:28:01.854Z,61
2018-03-20T07:29:02.554Z,61
2018-03-20T07:30:03.389Z,56
2018-03-20T07:31:04.122Z,56
2018-03-20T07:32:04.833Z,61
2018-03-20T07:33:05.550Z,61
2018-03-20T07:34:06.290Z,61
2018-03-20T07:35:07.008Z,56
2018-03-20T07:36:07.743Z,61
2018-03-20T07:37:08.481Z,67
2018-03-20T07:38:09.221Z,73
2018-03-20T07:39:09.955Z,67
2018-03-20T07:40:10.678Z,73
2018-03-20T07:41:11.400Z,84
2018-03-20T07:42:12.180Z,84
2018-03-20T07:43:12.901Z,73
2018-03-20T07:44:13.682Z,56
2018-03-20T07:45:14.408Z,50
2018-03-20T07:46:15.174Z,56
2018-03-20T07:47:15.884Z,73
2018-03-20T07:48:16.611Z,78
2018-03-20T07:49:17.381Z,78
2018-03-20T07:50:18.104Z,84
2018-03-20T07:51:18.821Z,78
2018-03-20T07:52:19.566Z,78
2018-03-20T07:53:20.315Z,78
2018-03-20T07:54:21.039Z,90
2018-03-20T07:55:21.784Z,101
2018-03-20T07:56:22.550Z,112
2018-03-20T07:57:23.264Z,135
2018-03-20T07:58:23.989Z,157
2018-03-20T07:59:24.705Z,140
2018-03-20T08:00:25.428Z,135
2018-03-20T08:01:26.144Z,146
2018-03-20T08:02:26.878Z,157
2018-03-20T08:03:27.634Z,168
2018-03-20T08:04:28.391Z,180
2018-03-20T08:05:29.116Z,174
2018-03-20T08:06:29.884Z,168
2018-03-20T08:07:30.602Z,163
2018-03-20T08:08:31.322Z,196
2018-03-20T08:09:32.089Z,168
2018-03-20T08:10:32.814Z,180
2018-03-20T08:11:33.608Z,185
2018-03-20T08:12:34.330Z,163
2018-03-20T08:13:35.055Z,163
2018-03-20T08:14:35.844Z,163
2018-03-20T08:15:36.594Z,174
2018-03-20T08:16:37.310Z,196
2018-03-20T08:17:38.034Z,208
2018-03-20T08:18:38.764Z,191
2018-03-20T08:19:39.542Z,163
2018-03-20T08:20:40.310Z,180
2018-03-20T08:21:41.070Z,208
2018-03-20T08:22:41.850Z,213
2018-03-20T08:23:42.592Z,230
2018-03-20T08:24:43.325Z,258
2018-03-20T08:25:44.049Z,247
2018-03-20T08:26:44.774Z,253
2018-03-20T08:27:45.562Z,247
2018-03-20T08:28:46.292Z,230
2018-03-20T08:29:46.990Z,247
2018-03-20T08:30:47.712Z,253
2018-03-20T08:31:48.501Z,326
2018-03-20T08:32:49.245Z,545
2018-03-20T08:33:49.959Z,360
2018-03-20T08:34:50.689Z,270
2018-03-20T08:35:51.431Z,331
2018-03-20T08:36:52.164Z,562
2018-03-20T08:37:52.902Z,315
2018-03-20T08:38:53.684Z,365
2018-03-20T08:39:54.423Z,365
2018-03-20T08:40:55.147Z,320
2018-03-20T08:41:55.920Z,286
2018-03-20T08:42:56.660Z,298
2018-03-20T08:43:57.467Z,427
2018-03-20T08:44:58.242Z,528
2018-03-20T08:45:58.962Z,399
2018-03-20T08:46:59.773Z,450
2018-03-20T08:48:00.500Z,416
2018-03-20T08:49:01.226Z,585
2018-03-20T08:50:02.062Z,466
2018-03-20T08:51:02.743Z,444
2018-03-20T08:52:03.530Z,1260
2018-03-20T08:53:04.263Z,1918
2018-03-20T08:54:05.037Z,551
2018-03-20T08:55:05.762Z,663
2018-03-20T08:56:06.504Z,556
2018-03-20T08:57:07.261Z,483
2018-03-20T08:58:08.005Z,1029
2018-03-20T08:59:08.746Z,635
2018-03-20T09:00:09.482Z,770
2018-03-20T09:01:10.253Z,590
2018-03-20T09:02:10.978Z,871
2018-03-20T09:03:11.769Z,1102
2018-03-20T09:04:12.533Z,596
2018-03-20T09:05:13.262Z,714
2018-03-20T09:06:14.030Z,748
2018-03-20T09:07:14.791Z,843
2018-03-20T09:08:15.550Z,680
2018-03-20T09:09:16.275Z,714
2018-03-20T09:10:17.002Z,540
2018-03-20T09:11:17.795Z,1181
2018-03-20T09:12:18.500Z,1884
2018-03-20T09:13:19.231Z,1726
2018-03-20T09:14:19.939Z,888
2018-03-20T09:15:20.689Z,753
2018-03-20T09:16:21.473Z,1231
2018-03-20T09:17:22.192Z,697
2018-03-20T09:18:22.974Z,1366
2018-03-20T09:19:23.769Z,1012
2018-03-20T09:20:24.491Z,2947
2018-03-20T09:21:25.216Z,1153
2018-03-20T09:22:26.029Z,1186
2018-03-20T09:23:26.763Z,984
2018-03-20T09:24:27.600Z,2148
2018-03-20T09:25:28.270Z,2193
2018-03-20T09:26:29.056Z,725
2018-03-20T09:27:29.792Z,2919
2018-03-20T09:28:32.025Z,770
2018-03-20T09:29:33.324Z,916
2018-03-20T09:30:35.079Z,843
2018-03-20T09:31:35.743Z,2311
2018-03-20T09:32:36.471Z,2992
2018-03-20T09:33:37.216Z,2992
2018-03-20T09:34:38.010Z,3116
2018-03-20T09:35:38.736Z,3009
2018-03-20T09:36:39.538Z,2598
2018-03-20T09:37:40.325Z,3200
2018-03-20T09:38:41.076Z,3301
2018-03-20T09:39:41.842Z,956
2018-03-20T09:40:42.569Z,3166
2018-03-20T09:41:43.306Z,1625
2018-03-20T09:42:45.738Z,3155
2018-03-20T09:43:45.874Z,3178
2018-03-20T09:44:46.554Z,3256
2018-03-20T09:45:47.279Z,3391
2018-03-20T09:46:48.069Z,956
2018-03-20T09:47:48.804Z,3307
2018-03-20T09:48:49.622Z,3369
2018-03-20T09:49:50.413Z,3673
2018-03-20T09:50:51.282Z,3645
2018-03-20T09:51:52.003Z,3369
2018-03-20T09:52:52.729Z,3493
2018-03-20T09:53:53.466Z,2452
2018-03-20T09:54:54.253Z,1563
2018-03-20T09:55:54.980Z,3178
2018-03-20T09:56:55.709Z,2351
2018-03-20T09:57:56.447Z,601
2018-03-20T09:58:57.225Z,3307
2018-03-20T09:59:57.961Z,3420
2018-03-20T10:00:58.762Z,3172
2018-03-20T10:01:59.496Z,1625
2018-03-20T10:03:00.224Z,714
2018-03-20T10:04:01.015Z,3335
2018-03-20T10:05:01.808Z,3622
2018-03-20T10:06:02.613Z,2070
2018-03-20T10:07:03.389Z,3510
2018-03-20T10:08:04.080Z,2671
2018-03-20T10:09:04.816Z,2424
2018-03-20T10:10:05.551Z,1080
2018-03-20T10:11:06.275Z,1901
2018-03-20T10:12:07.017Z,1102
2018-03-20T10:13:07.776Z,2683
2018-03-20T10:14:08.547Z,2806
2018-03-20T10:15:09.283Z,804
2018-03-20T10:16:10.013Z,3183
2018-03-20T10:17:10.738Z,2171
2018-03-20T10:18:11.470Z,787
2018-03-20T10:19:12.210Z,860
2018-03-20T10:20:13.016Z,3178
2018-03-20T10:21:13.719Z,3172
2018-03-20T10:22:14.450Z,2531
2018-03-20T10:23:15.224Z,1980
2018-03-20T10:24:15.952Z,2981
2018-03-20T10:25:16.684Z,3217
2018-03-20T10:26:17.410Z,2970
2018-03-20T10:27:18.153Z,2958
2018-03-20T10:28:18.888Z,3155
2018-03-20T10:29:19.664Z,3155
2018-03-20T10:30:20.396Z,3121
2018-03-20T10:31:21.140Z,3217
2018-03-20T10:32:21.911Z,1035
2018-03-20T10:33:22.640Z,2992
2018-03-20T10:34:23.371Z,3020
2018-03-20T10:35:24.211Z,3481
2018-03-20T10:36:24.910Z,2756
2018-03-20T10:37:25.640Z,928
2018-03-20T10:38:26.385Z,753
2018-03-20T10:39:27.112Z,1102
2018-03-20T10:40:27.850Z,3217
2018-03-20T10:41:28.632Z,2565
2018-03-20T10:42:29.397Z,1423
2018-03-20T10:43:30.134Z,984
2018-03-20T10:44:30.881Z,1288
2018-03-20T10:45:31.629Z,2525
2018-03-20T10:46:32.353Z,1175
2018-03-20T10:47:33.084Z,3442
2018-03-20T10:48:33.877Z,3515
2018-03-20T10:49:34.675Z,3571
2018-03-20T10:50:35.493Z,1507
2018-03-20T10:51:36.229Z,753
2018-03-20T10:52:36.962Z,1276
2018-03-20T10:53:37.695Z,3155
2018-03-20T10:54:38.449Z,3566
2018-03-20T10:55:39.240Z,1203
2018-03-20T10:56:39.985Z,1496
2018-03-20T10:57:40.729Z,2469
2018-03-20T10:58:41.460Z,3515
2018-03-20T10:59:42.185Z,1091
2018-03-20T11:00:42.918Z,1254
2018-03-20T11:01:43.711Z,3639
2018-03-20T11:02:44.440Z,3645
2018-03-20T11:03:45.181Z,1158
2018-03-20T11:04:45.906Z,843
2018-03-20T11:05:46.663Z,590
2018-03-20T11:06:47.394Z,601
2018-03-20T11:07:48.270Z,961
2018-03-20T11:08:49.041Z,1541
2018-03-20T11:09:49.784Z,1355
2018-03-20T11:10:50.523Z,3060
2018-03-20T11:11:51.268Z,1006
2018-03-20T11:12:52.104Z,1198
2018-03-20T11:13:52.840Z,961
2018-03-20T11:14:53.625Z,669
2018-03-20T11:15:54.406Z,3268
2018-03-20T11:16:55.147Z,3386
2018-03-20T11:17:55.885Z,1271
2018-03-20T11:18:57.219Z,3200
2018-03-20T11:19:57.893Z,3251
2018-03-20T11:20:58.692Z,3228
2018-03-20T11:21:59.425Z,826
2018-03-20T11:23:00.143Z,3307
2018-03-20T11:24:01.007Z,3307
2018-03-20T11:25:01.719Z,3290
2018-03-20T11:26:02.467Z,3228
2018-03-20T11:27:03.266Z,3060
2018-03-20T11:28:04.082Z,3116
2018-03-20T11:29:04.980Z,2958
2018-03-20T11:30:06.406Z,3307
2018-03-20T11:31:07.267Z,3285
2018-03-20T11:32:08.013Z,3318
2018-03-20T11:33:08.742Z,3369
2018-03-20T11:34:09.563Z,871
2018-03-20T11:35:10.354Z,2722
2018-03-20T11:36:11.040Z,3082
2018-03-20T11:37:11.777Z,3133
2018-03-20T11:38:12.509Z,2401
2018-03-20T11:39:13.240Z,731
2018-03-20T11:40:13.971Z,888
2018-03-20T11:41:14.713Z,3470
2018-03-20T11:42:15.461Z,1231
2018-03-20T11:43:16.265Z,3009
2018-03-20T11:44:16.988Z,3296
2018-03-20T11:45:17.705Z,1282
2018-03-20T11:46:18.432Z,1006
2018-03-20T11:47:19.162Z,1046
2018-03-20T11:48:19.942Z,1951
2018-03-20T11:49:20.664Z,815
2018-03-20T11:50:21.422Z,883
2018-03-20T11:51:22.175Z,3352
2018-03-20T11:52:22.965Z,3391
2018-03-20T11:53:23.695Z,3369
2018-03-20T11:54:24.439Z,905
2018-03-20T11:55:25.194Z,900
2018-03-20T11:56:25.939Z,1102
2018-03-20T11:57:26.680Z,2908
2018-03-20T11:58:27.410Z,2227
2018-03-20T11:59:28.143Z,995
2018-03-20T12:00:28.889Z,1327
2018-03-20T12:01:29.638Z,1215
2018-03-20T12:02:30.377Z,1203
2018-03-20T12:03:31.127Z,2053
2018-03-20T12:04:31.925Z,691
2018-03-20T12:05:32.665Z,1496
2018-03-20T12:06:33.400Z,1355
2018-03-20T12:07:34.139Z,607
2018-03-20T12:08:34.930Z,2143
2018-03-20T12:09:35.674Z,714
2018-03-20T12:10:36.402Z,1715
2018-03-20T12:11:37.143Z,1698
2018-03-20T12:12:37.883Z,562
2018-03-20T12:13:38.610Z,1417
2018-03-20T12:14:39.331Z,1248
2018-03-20T12:15:40.127Z,1305
2018-03-20T12:16:40.867Z,1305
2018-03-20T12:17:41.622Z,922
2018-03-20T12:18:42.365Z,1108
2018-03-20T12:19:43.113Z,1215
2018-03-20T12:20:43.866Z,1327
2018-03-20T12:21:44.627Z,1423
2018-03-20T12:22:45.429Z,1518
2018-03-20T12:23:46.160Z,905
2018-03-20T12:24:46.891Z,2131
2018-03-20T12:25:47.625Z,2013
2018-03-20T12:26:48.400Z,2334
2018-03-20T12:27:49.134Z,2238
2018-03-20T12:28:49.862Z,770
2018-03-20T12:29:50.615Z,900
2018-03-20T12:30:51.387Z,2818
2018-03-20T12:31:52.149Z,2896
2018-03-20T12:32:52.872Z,2829
2018-03-20T12:33:53.732Z,630
2018-03-20T12:34:54.472Z,613
2018-03-20T12:35:55.281Z,2030
2018-03-20T12:36:56.000Z,2722
2018-03-20T12:37:56.733Z,2671
2018-03-20T12:38:57.460Z,2632
2018-03-20T12:39:58.202Z,1850
2018-03-20T12:40:58.931Z,2334
2018-03-20T12:41:59.673Z,2379
2018-03-20T12:43:00.410Z,2396
2018-03-20T12:44:01.184Z,2413
2018-03-20T12:45:01.919Z,2424
2018-03-20T12:46:02.665Z,2458
2018-03-20T12:47:03.420Z,2480
2018-03-20T12:48:04.146Z,2559
2018-03-20T12:49:04.883Z,2621
2018-03-20T12:50:05.622Z,2638
2018-03-20T12:51:06.340Z,2677
2018-03-20T12:52:07.070Z,2728
2018-03-20T12:53:07.795Z,2728
2018-03-20T12:54:08.560Z,2694
2018-03-20T12:55:09.284Z,2261
2018-03-20T12:56:10.100Z,2491
2018-03-20T12:57:10.832Z,2531
2018-03-20T12:58:11.687Z,2435
2018-03-20T12:59:12.434Z,1220
2018-03-20T13:00:13.179Z,708
2018-03-20T13:01:13.916Z,810
2018-03-20T13:02:14.710Z,2165
2018-03-20T13:03:15.449Z,1946
2018-03-20T13:04:16.201Z,815
2018-03-20T13:05:16.966Z,691
2018-03-20T13:06:17.783Z,2182
2018-03-20T13:07:18.524Z,551
2018-03-20T13:08:19.265Z,562
2018-03-20T13:09:20.066Z,579
2018-03-20T13:10:20.789Z,635
2018-03-20T13:11:21.530Z,720
2018-03-20T13:12:22.265Z,686
2018-03-20T13:13:23.072Z,697
2018-03-20T13:14:23.853Z,781
2018-03-20T13:15:24.603Z,1366
2018-03-20T13:16:25.341Z,669
2018-03-20T13:17:26.074Z,691
2018-03-20T13:18:26.790Z,2092
2018-03-20T13:19:27.519Z,1901
2018-03-20T13:20:28.259Z,1350
2018-03-20T13:21:28.996Z,1119
2018-03-20T13:22:29.740Z,888
2018-03-20T13:23:30.492Z,596
2018-03-20T13:24:31.232Z,860
2018-03-20T13:25:31.975Z,1063
2018-03-20T13:26:32.777Z,1051
2018-03-20T13:27:33.630Z,731
2018-03-20T13:28:34.352Z,933
2018-03-20T13:29:35.082Z,461
2018-03-20T13:30:35.821Z,1456
2018-03-20T13:31:36.577Z,1462
2018-03-20T13:32:37.325Z,675
2018-03-20T13:33:38.052Z,2098
2018-03-20T13:34:38.799Z,1620
2018-03-20T13:35:39.522Z,1479
2018-03-20T13:36:40.258Z,1580
2018-03-20T13:37:40.990Z,1597
2018-03-20T13:38:41.734Z,675
2018-03-20T13:39:42.519Z,1012
2018-03-20T13:40:43.260Z,1333
2018-03-20T13:41:44.039Z,1490
2018-03-20T13:42:44.773Z,1350
2018-03-20T13:43:45.536Z,1051
2018-03-20T13:44:46.229Z,1327
2018-03-20T13:45:46.964Z,1243
2018-03-20T13:46:47.749Z,1378
2018-03-20T13:47:48.511Z,1451
2018-03-20T13:48:49.323Z,1288
2018-03-20T13:49:50.062Z,1153
2018-03-20T13:50:52.603Z,1383
2018-03-20T13:51:51.570Z,1507
2018-03-20T13:52:52.357Z,1428
2018-03-20T13:53:53.091Z,956
2018-03-20T13:54:53.895Z,933
2018-03-20T13:55:54.722Z,1085
2018-03-20T13:56:55.452Z,815
2018-03-20T13:57:56.242Z,1220
2018-03-20T13:58:56.992Z,1265
2018-03-20T13:59:57.741Z,1451
2018-03-20T14:00:58.511Z,1710
2018-03-20T14:01:59.208Z,1698
2018-03-20T14:02:59.985Z,1816
2018-03-20T14:04:00.818Z,1794
2018-03-20T14:05:01.551Z,1625
2018-03-20T14:06:02.354Z,1558
2018-03-20T14:07:03.121Z,2008
2018-03-20T14:08:03.861Z,2199
2018-03-20T14:09:04.599Z,2210
2018-03-20T14:10:05.343Z,2306
2018-03-20T14:11:06.084Z,2272
2018-03-20T14:12:06.866Z,2188
2018-03-20T14:13:07.600Z,2165
2018-03-20T14:14:08.391Z,2160
2018-03-20T14:15:09.144Z,2176
2018-03-20T14:16:09.884Z,2081
2018-03-20T14:17:10.727Z,1968
2018-03-20T14:18:11.470Z,1631